Time;durP1;ratioP1;P1;durP2;ratioP2;P2;SDS_P1;SDS_P2;PMS_P1;PMS_P2;Temp;Humidity;BMP_temperature;BMP_pressure;BME280_temperature;BME280_humidity;BME280_pressure;Samples;Min_cycle;Max_cycle;Signal;HPM_P1;HPM_P2
2023/07/04 00:01:11;;;;;;;10.43;3.00;;;13.90;99.90;;;;;;5047369;28;20112;-78
2023/07/04 00:03:39;;;;;;;7.40;2.60;;;14.00;99.90;;;;;;5050406;28;20044;-79
2023/07/04 00:06:06;;;;;;;9.32;3.13;;;14.00;99.90;;;;;;5044340;28;20061;-79
2023/07/04 00:08:35;;;;;;;7.35;3.10;;;13.90;99.90;;;;;;5046354;28;20084;-78
2023/07/04 00:11:03;;;;;;;7.93;2.95;;;13.90;99.90;;;;;;5028286;28;20043;-78
2023/07/04 00:13:31;;;;;;;10.35;2.92;;;13.90;99.90;;;;;;5044141;28;20048;-78
2023/07/04 00:15:57;;;;;;;9.18;2.88;;;13.90;99.90;;;;;;5027002;28;20463;-78
2023/07/04 00:18:25;;;;;;;8.60;3.30;;;13.90;99.90;;;;;;5052260;28;20041;-79
2023/07/04 00:20:54;;;;;;;11.48;3.10;;;14.00;99.90;;;;;;5063520;28;20040;-78
2023/07/04 00:23:24;;;;;;;7.90;2.88;;;13.90;99.90;;;;;;5069066;28;20463;-78
2023/07/04 00:25:52;;;;;;;9.73;3.40;;;13.90;99.90;;;;;;5056015;28;20045;-78
2023/07/04 00:28:21;;;;;;;9.68;3.47;;;13.90;99.90;;;;;;5054398;28;20049;-78
2023/07/04 00:30:48;;;;;;;9.35;3.10;;;13.90;99.90;;;;;;5055883;28;20522;-78
2023/07/04 00:33:16;;;;;;;5.90;2.50;;;13.80;99.90;;;;;;5055831;28;20037;-79
2023/07/04 00:35:42;;;;;;;10.07;3.25;;;13.80;99.90;;;;;;5055753;28;20496;-78
2023/07/04 00:38:09;;;;;;;10.85;3.40;;;13.80;99.90;;;;;;5042593;28;20044;-78
2023/07/04 00:40:34;;;;;;;9.90;3.40;;;13.70;99.90;;;;;;5042980;28;20049;-79
2023/07/04 00:43:04;;;;;;;12.25;4.18;;;13.70;99.90;;;;;;5039675;28;20072;-78
2023/07/04 00:45:38;;;;;;;11.35;3.45;;;13.60;99.90;;;;;;5057694;28;20041;-79
2023/07/04 00:48:05;;;;;;;8.43;3.20;;;13.70;99.90;;;;;;5033699;28;20041;-79
2023/07/04 00:50:33;;;;;;;8.90;2.83;;;13.60;99.90;;;;;;5049797;28;20037;-79
2023/07/04 00:53:05;;;;;;;10.35;2.78;;;13.60;99.90;;;;;;5050441;28;20060;-79
2023/07/04 00:55:33;;;;;;;9.75;3.08;;;13.60;99.90;;;;;;5049642;28;20056;-79
2023/07/04 00:58:04;;;;;;;8.38;2.80;;;13.60;99.90;;;;;;5048355;28;20130;-79
2023/07/04 01:00:31;;;;;;;7.45;2.72;;;13.50;99.90;;;;;;5047598;28;20068;-79
2023/07/04 01:03:11;;;;;;;7.68;2.80;;;13.50;99.90;;;;;;5050372;28;20301;-79
2023/07/04 01:05:51;;;;;;;7.38;3.00;;;13.50;99.90;;;;;;5043763;28;20049;-78
2023/07/04 01:08:22;;;;;;;9.57;3.25;;;13.40;99.90;;;;;;5049011;28;20049;-78
2023/07/04 01:10:49;;;;;;;9.20;3.00;;;;;;;;;;5048741;28;20102;-78
2023/07/04 01:13:36;;;;;;;7.37;2.60;;;13.50;99.90;;;;;;5048703;28;20051;-79
2023/07/04 01:16:11;;;;;;;9.53;3.20;;;13.50;99.90;;;;;;5045945;28;20296;-79
2023/07/04 01:18:39;;;;;;;8.30;2.78;;;13.60;99.90;;;;;;5039396;28;20069;-78
2023/07/04 01:21:07;;;;;;;6.95;2.70;;;13.50;99.90;;;;;;5048972;28;20037;-78
2023/07/04 01:24:04;;;;;;;10.75;3.30;;;13.60;99.90;;;;;;5078206;28;20041;-78
2023/07/04 01:26:41;;;;;;;8.17;2.70;;;13.60;99.90;;;;;;5050594;28;20079;-79
2023/07/04 01:29:10;;;;;;;8.95;2.70;;;13.50;99.90;;;;;;5046107;28;20666;-79
2023/07/04 01:31:37;;;;;;;9.80;2.60;;;13.50;99.90;;;;;;5047789;28;20075;-79
2023/07/04 01:34:04;;;;;;;5.80;2.40;;;13.50;99.90;;;;;;5060508;28;20045;-78
2023/07/04 01:36:33;;;;;;;11.90;2.50;;;13.40;99.90;;;;;;5043247;28;20072;-78
2023/07/04 01:38:59;;;;;;;9.02;2.75;;;13.30;99.90;;;;;;5043694;28;20085;-79
2023/07/04 01:41:25;;;;;;;7.50;2.75;;;13.30;99.90;;;;;;5059449;28;20060;-79
2023/07/04 01:44:05;;;;;;;7.68;2.80;;;13.30;99.90;;;;;;5056720;28;20052;-78
2023/07/04 01:46:32;;;;;;;7.55;2.30;;;13.20;99.90;;;;;;5050625;28;20040;-79
2023/07/04 01:48:59;;;;;;;8.63;2.83;;;13.20;99.90;;;;;;5028727;28;20369;-79
2023/07/04 01:51:37;;;;;;;7.47;2.78;;;13.10;99.90;;;;;;5047017;28;20048;-79
2023/07/04 01:54:05;;;;;;;9.70;3.35;;;13.10;99.90;;;;;;5046502;28;20048;-79
2023/07/04 01:56:32;;;;;;;9.05;3.00;;;13.10;99.90;;;;;;5043641;28;20049;-79
2023/07/04 01:58:58;;;;;;;;;;;13.10;99.90;;;;;;5045696;28;20060;-79
2023/07/04 02:01:24;;;;;;;8.52;2.70;;;13.10;99.90;;;;;;5050504;28;19947;-79
2023/07/04 02:03:51;;;;;;;9.45;3.10;;;13.10;99.90;;;;;;5050107;28;20040;-79
2023/07/04 02:06:17;;;;;;;10.13;3.10;;;13.20;99.90;;;;;;5044872;28;20500;-79
2023/07/04 02:08:42;;;;;;;13.48;3.30;;;13.20;99.90;;;;;;5048671;28;20049;-79
2023/07/04 02:11:08;;;;;;;10.07;2.95;;;13.10;99.90;;;;;;5051088;28;20064;-79
2023/07/04 02:13:34;;;;;;;11.32;3.00;;;13.20;99.90;;;;;;5046517;28;20048;-79
2023/07/04 02:15:59;;;;;;;8.43;2.95;;;13.20;99.90;;;;;;5053050;28;20068;-79
2023/07/04 02:18:26;;;;;;;8.30;3.03;;;13.10;99.90;;;;;;5054444;28;20055;-79
2023/07/04 02:20:52;;;;;;;11.32;3.30;;;13.20;99.90;;;;;;5054456;28;20038;-79
2023/07/04 02:23:17;;;;;;;11.30;3.40;;;13.20;99.90;;;;;;5054267;28;20051;-79
2023/07/04 02:25:43;;;;;;;10.02;3.40;;;13.20;99.90;;;;;;5073051;28;20072;-78
2023/07/04 02:28:10;;;;;;;9.05;3.10;;;13.20;99.90;;;;;;5066014;28;20134;-80
2023/07/04 02:30:36;;;;;;;8.70;3.47;;;13.20;99.90;;;;;;5068558;28;20045;-79
2023/07/04 02:33:02;;;;;;;11.68;4.20;;;13.20;99.90;;;;;;5065459;28;20041;-79
2023/07/04 02:35:29;;;;;;;9.20;3.10;;;13.20;99.90;;;;;;5061073;28;20124;-79
2023/07/04 02:37:55;;;;;;;8.85;3.47;;;13.20;99.90;;;;;;5027158;28;20069;-80
2023/07/04 02:40:21;;;;;;;11.30;3.47;;;13.20;99.90;;;;;;5043640;28;20037;-79
2023/07/04 02:42:46;;;;;;;12.32;4.03;;;13.20;99.90;;;;;;5043068;28;20392;-79
2023/07/04 02:45:12;;;;;;;10.68;3.53;;;13.20;99.90;;;;;;5042682;28;20406;-79
2023/07/04 02:47:38;;;;;;;9.35;3.88;;;13.20;99.90;;;;;;5058927;28;20041;-79
2023/07/04 02:50:04;;;;;;;11.10;3.80;;;13.20;99.90;;;;;;5024795;28;20127;-79
2023/07/04 02:52:30;;;;;;;9.20;3.78;;;13.20;99.90;;;;;;5077437;28;20137;-79
2023/07/04 02:54:56;;;;;;;14.27;3.83;;;13.20;99.90;;;;;;5053463;28;20045;-79
2023/07/04 02:57:22;;;;;;;10.73;3.78;;;13.20;99.90;;;;;;5030334;28;20072;-77
2023/07/04 02:59:48;;;;;;;11.93;4.63;;;13.20;99.90;;;;;;5050649;28;20138;-79
2023/07/04 03:02:14;;;;;;;14.40;4.20;;;13.20;99.90;;;;;;5035142;28;20076;-80
2023/07/04 03:04:40;;;;;;;11.98;4.60;;;13.20;99.90;;;;;;5049730;28;20037;-80
2023/07/04 03:07:06;;;;;;;13.25;4.60;;;13.20;99.90;;;;;;5036194;28;20045;-80
2023/07/04 03:09:32;;;;;;;9.70;3.97;;;13.20;99.90;;;;;;5051841;28;20106;-80
2023/07/04 03:11:58;;;;;;;12.98;4.40;;;13.20;99.90;;;;;;5045805;28;20053;-80
2023/07/04 03:14:24;;;;;;;11.30;4.18;;;13.20;99.90;;;;;;5047176;28;20037;-80
2023/07/04 03:16:51;;;;;;;13.35;4.30;;;13.20;99.90;;;;;;5030777;28;20123;-81
2023/07/04 03:19:16;;;;;;;11.35;4.15;;;13.10;99.90;;;;;;5050803;28;20068;-80
2023/07/04 03:21:42;;;;;;;11.73;4.25;;;13.10;99.90;;;;;;5044956;28;20079;-80
2023/07/04 03:24:08;;;;;;;11.55;3.95;;;13.20;99.90;;;;;;5052692;28;20092;-80
2023/07/04 03:26:37;;;;;;;10.93;4.20;;;13.10;99.90;;;;;;5051371;28;20041;-80
2023/07/04 03:29:03;;;;;;;14.23;4.65;;;13.10;99.90;;;;;;5050743;28;20051;-80
2023/07/04 03:31:29;;;;;;;9.05;4.10;;;13.10;99.90;;;;;;5051469;28;20041;-80
2023/07/04 03:33:54;;;;;;;14.18;4.88;;;13.10;99.90;;;;;;5054749;28;20041;-80
2023/07/04 03:36:20;;;;;;;11.77;3.95;;;13.10;99.90;;;;;;5048429;28;20037;-81
2023/07/04 03:38:46;;;;;;;11.63;4.30;;;13.10;99.90;;;;;;5047905;28;20037;-81
2023/07/04 03:41:12;;;;;;;11.43;4.25;;;13.10;99.90;;;;;;5051328;28;20163;-82
2023/07/04 03:43:39;;;;;;;9.20;3.75;;;13.10;99.90;;;;;;5052329;28;20044;-82
2023/07/04 03:46:05;;;;;;;12.65;4.30;;;13.10;99.90;;;;;;5048966;28;20033;-82
2023/07/04 03:48:31;;;;;;;9.93;4.00;;;13.10;99.90;;;;;;5046892;28;20094;-82
2023/07/04 03:50:57;;;;;;;9.07;3.75;;;13.10;99.90;;;;;;5049124;28;20041;-82
2023/07/04 03:53:23;;;;;;;11.25;4.13;;;13.20;99.90;;;;;;5049568;28;21929;-81
2023/07/04 03:55:50;;;;;;;9.75;3.78;;;13.20;99.90;;;;;;5049870;28;20120;-80
2023/07/04 03:58:17;;;;;;;11.65;4.22;;;13.20;99.90;;;;;;5050459;28;20099;-80
2023/07/04 04:00:49;;;;;;;11.18;3.78;;;13.20;99.90;;;;;;5049793;28;20956;-80
2023/07/04 04:03:15;;;;;;;8.88;3.67;;;13.20;99.90;;;;;;5050617;28;20075;-81
2023/07/04 04:05:44;;;;;;;9.07;3.20;;;13.30;99.90;;;;;;5047309;28;20110;-81
2023/07/04 04:08:10;;;;;;;8.95;3.88;;;13.30;99.90;;;;;;5050128;28;20075;-81
2023/07/04 04:10:54;;;;;;;12.23;3.83;;;13.30;99.90;;;;;;5050042;28;20147;-81
2023/07/04 04:13:38;;;;;;;9.50;3.72;;;13.30;99.90;;;;;;5051698;28;20039;-81
2023/07/04 04:16:21;;;;;;;12.68;3.50;;;13.30;99.90;;;;;;5048030;28;20041;-81
2023/07/04 04:18:46;;;;;;;7.05;3.35;;;13.40;99.90;;;;;;5047503;28;21459;-81
2023/07/04 04:21:12;;;;;;;11.23;3.55;;;13.40;99.90;;;;;;5034194;28;20219;-80
2023/07/04 04:23:38;;;;;;;10.75;3.30;;;13.40;99.90;;;;;;5053228;28;20084;-81
2023/07/04 04:26:04;;;;;;;5.82;3.10;;;13.40;99.90;;;;;;5030562;28;20400;-81
2023/07/04 04:28:29;;;;;;;8.13;3.15;;;13.40;99.90;;;;;;5035132;28;20499;-80
2023/07/04 04:30:55;;;;;;;14.02;3.80;;;13.40;99.90;;;;;;5072638;28;20043;-80
2023/07/04 04:33:21;;;;;;;10.93;3.53;;;13.40;99.90;;;;;;5058022;28;20047;-82
2023/07/04 04:35:46;;;;;;;6.90;2.88;;;13.50;99.90;;;;;;5048589;28;20109;-81
2023/07/04 04:38:12;;;;;;;9.13;3.25;;;13.60;99.90;;;;;;5029030;28;20048;-80
2023/07/04 04:40:38;;;;;;;6.82;3.47;;;13.50;99.90;;;;;;5057403;28;20059;-79
2023/07/04 04:43:04;;;;;;;6.82;3.05;;;13.60;99.90;;;;;;5058386;28;20107;-80
2023/07/04 04:45:30;;;;;;;7.13;3.15;;;13.70;99.90;;;;;;5064744;28;20045;-79
2023/07/04 04:47:56;;;;;;;7.07;2.83;;;13.60;99.90;;;;;;5063660;28;20072;-79
2023/07/04 04:50:23;;;;;;;7.55;2.80;;;13.70;99.90;;;;;;5030452;28;20099;-79
2023/07/04 04:52:49;;;;;;;6.30;2.50;;;13.70;99.90;;;;;;5036392;28;20040;-80
2023/07/04 04:55:15;;;;;;;9.40;2.63;;;13.70;99.90;;;;;;5051778;28;20040;-81
2023/07/04 04:57:41;;;;;;;7.13;2.53;;;13.80;99.90;;;;;;5038016;28;20045;-80
2023/07/04 05:00:08;;;;;;;7.97;2.75;;;13.90;99.90;;;;;;5052854;28;20526;-80
2023/07/04 05:02:34;;;;;;;7.05;2.45;;;13.90;99.90;;;;;;5055164;28;20064;-80
2023/07/04 05:05:01;;;;;;;7.10;2.42;;;13.90;99.90;;;;;;5055345;28;20037;-81
2023/07/04 05:07:28;;;;;;;7.28;2.80;;;14.00;99.90;;;;;;5051535;28;20045;-80
2023/07/04 05:09:55;;;;;;;9.00;2.30;;;14.00;99.90;;;;;;5051959;28;20044;-81
2023/07/04 05:12:21;;;;;;;7.37;2.67;;;14.00;99.90;;;;;;5054520;28;20041;-81
2023/07/04 05:14:46;;;;;;;7.03;2.80;;;14.10;99.90;;;;;;5053530;28;20041;-80
2023/07/04 05:17:12;;;;;;;5.43;2.50;;;14.10;99.90;;;;;;5046798;28;20041;-82
2023/07/04 05:19:38;;;;;;;5.15;2.17;;;14.10;99.90;;;;;;5036798;28;20067;-81
2023/07/04 05:22:04;;;;;;;8.25;2.53;;;14.20;99.90;;;;;;5030191;28;20075;-81
2023/07/04 05:24:30;;;;;;;10.98;2.50;;;14.20;99.90;;;;;;5051857;28;20053;-81
2023/07/04 05:26:56;;;;;;;5.30;2.55;;;14.30;99.90;;;;;;5051703;28;20064;-82
2023/07/04 05:29:22;;;;;;;10.93;2.80;;;14.30;99.90;;;;;;5052861;28;20037;-82
2023/07/04 05:31:48;;;;;;;7.07;2.40;;;14.30;99.90;;;;;;5030177;28;20111;-83
2023/07/04 05:34:13;;;;;;;5.68;2.50;;;14.40;99.90;;;;;;5032492;28;20051;-82
2023/07/04 05:36:39;;;;;;;5.35;2.22;;;14.60;99.90;;;;;;5029880;28;20053;-81
2023/07/04 05:39:08;;;;;;;7.13;2.38;;;14.50;99.90;;;;;;5018257;28;20300;-81
2023/07/04 05:41:36;;;;;;;7.60;2.30;;;14.50;99.90;;;;;;5052423;28;20052;-82
2023/07/04 05:44:07;;;;;;;7.05;2.70;;;14.60;99.90;;;;;;5049314;28;20041;-82
2023/07/04 05:46:33;;;;;;;9.27;2.70;;;14.70;99.90;;;;;;5054613;28;20090;-82
2023/07/04 05:48:59;;;;;;;9.88;2.50;;;14.70;99.90;;;;;;5052282;28;20033;-81
2023/07/04 05:51:25;;;;;;;5.10;2.25;;;14.80;99.90;;;;;;5030434;28;20045;-82
2023/07/04 05:53:52;;;;;;;8.02;2.60;;;14.90;99.90;;;;;;5050729;28;20203;-82
2023/07/04 05:56:26;;;;;;;11.90;2.63;;;15.00;99.90;;;;;;5056215;28;20045;-82
2023/07/04 05:58:59;;;;;;;10.05;2.50;;;15.20;99.90;;;;;;5060957;28;20064;-82
2023/07/04 06:01:33;;;;;;;7.32;2.50;;;15.30;99.90;;;;;;5050881;28;20526;-82
2023/07/04 06:04:00;;;;;;;4.90;2.25;;;15.50;99.90;;;;;;5068240;28;20041;-82
2023/07/04 06:06:31;;;;;;;9.80;2.75;;;15.70;99.90;;;;;;5072612;28;20037;-82
2023/07/04 06:08:59;;;;;;;10.25;2.50;;;15.90;99.90;;;;;;5065172;28;22177;-81
2023/07/04 06:11:29;;;;;;;6.53;2.05;;;;;;;;;;5056364;28;20080;-83
2023/07/04 06:13:56;;;;;;;6.38;2.30;;;16.30;99.90;;;;;;5054723;28;20037;-83
2023/07/04 06:16:22;;;;;;;7.70;2.20;;;;;;;;;;5063326;28;20059;-84
2023/07/04 06:18:48;;;;;;;8.38;1.73;;;;;;;;;;5054163;28;20037;-83
2023/07/04 06:21:17;;;;;;;6.07;1.80;;;17.00;99.90;;;;;;5052300;28;20055;-83
2023/07/04 06:23:43;;;;;;;8.13;2.20;;;;;;;;;;5052276;28;20045;-83
2023/07/04 06:26:10;;;;;;;5.70;2.05;;;17.70;99.90;;;;;;5052772;28;20033;-83
2023/07/04 06:28:37;;;;;;;7.00;2.22;;;17.60;99.90;;;;;;5070864;28;20036;-83
2023/07/04 06:31:05;;;;;;;6.63;2.10;;;17.50;99.90;;;;;;5071022;28;20049;-83
2023/07/04 06:33:31;;;;;;;;;;;17.40;99.90;;;;;;5062652;28;20125;-82
2023/07/04 06:35:57;;;;;;;7.70;2.55;;;17.50;99.90;;;;;;5063879;28;19929;-82
2023/07/04 06:38:23;;;;;;;6.72;2.08;;;17.50;99.90;;;;;;5045503;28;20048;-82
2023/07/04 06:40:56;;;;;;;7.68;2.22;;;17.50;99.90;;;;;;5070936;28;20071;-82
2023/07/04 06:43:23;;;;;;;4.88;1.88;;;18.00;99.90;;;;;;5076726;28;20372;-80
2023/07/04 06:45:49;;;;;;;8.40;2.00;;;;;;;;;;5050354;28;20036;-79
2023/07/04 06:48:15;;;;;;;8.18;1.75;;;21.10;99.90;;;;;;5052220;28;20104;-79
2023/07/04 06:50:42;;;;;;;6.38;1.80;;;21.50;99.90;;;;;;5055197;28;20072;-82
2023/07/04 06:53:08;;;;;;;6.03;1.87;;;22.30;99.90;;;;;;5032778;28;20144;-78
2023/07/04 06:55:33;;;;;;;8.65;2.00;;;22.60;99.90;;;;;;5051720;28;20041;-79
2023/07/04 06:57:59;;;;;;;6.72;1.73;;;22.80;99.90;;;;;;5050899;28;20041;-79
2023/07/04 07:00:25;;;;;;;6.85;1.60;;;22.50;99.90;;;;;;5047055;28;20119;-77
2023/07/04 07:02:50;;;;;;;9.63;2.05;;;22.60;99.90;;;;;;5049814;28;20045;-81
2023/07/04 07:05:17;;;;;;;10.52;2.20;;;22.60;99.90;;;;;;5053088;28;20510;-79
2023/07/04 07:07:43;;;;;;;6.68;2.00;;;22.50;99.90;;;;;;5051393;28;20056;-81
2023/07/04 07:10:09;;;;;;;5.80;1.55;;;22.10;99.90;;;;;;5050215;28;20053;-81
2023/07/04 07:12:34;;;;;;;4.82;2.10;;;21.70;99.90;;;;;;5051493;28;20029;-80
2023/07/04 07:15:00;;;;;;;6.95;1.90;;;21.70;99.90;;;;;;5049061;28;20137;-80
2023/07/04 07:17:25;;;;;;;5.15;1.75;;;21.60;99.90;;;;;;5053407;28;20048;-80
2023/07/04 07:19:51;;;;;;;5.07;1.40;;;21.80;99.90;;;;;;5049484;28;20034;-79
2023/07/04 07:22:17;;;;;;;4.50;1.40;;;21.70;99.90;;;;;;5048292;28;20048;-81
2023/07/04 07:24:43;;;;;;;8.13;1.40;;;21.60;99.90;;;;;;5049921;28;20124;-80
2023/07/04 07:27:08;;;;;;;7.75;1.77;;;21.10;99.90;;;;;;5052915;28;20033;-79
2023/07/04 07:29:34;;;;;;;5.28;2.08;;;20.90;99.90;;;;;;5031182;28;20049;-79
2023/07/04 07:32:06;;;;;;;6.45;1.83;;;20.40;99.90;;;;;;5052979;28;20057;-78
2023/07/04 07:34:32;;;;;;;6.22;1.88;;;20.70;99.90;;;;;;5054469;28;20045;-79
2023/07/04 07:36:58;;;;;;;5.25;1.50;;;21.50;99.90;;;;;;5034053;28;20195;-79
2023/07/04 07:39:24;;;;;;;7.00;1.90;;;22.30;99.90;;;;;;5039711;28;20051;-79
2023/07/04 07:41:49;;;;;;;3.95;1.70;;;22.30;99.90;;;;;;5049852;28;20707;-79
2023/07/04 07:44:16;;;;;;;5.88;1.80;;;22.10;99.90;;;;;;5050070;28;20048;-79
2023/07/04 07:46:43;;;;;;;5.15;1.90;;;22.40;99.90;;;;;;5048504;28;20044;-79
2023/07/04 07:49:09;;;;;;;6.85;2.10;;;22.60;99.90;;;;;;5054108;28;20033;-79
2023/07/04 07:51:37;;;;;;;5.93;2.30;;;22.60;99.90;;;;;;5050091;28;20087;-79
2023/07/04 07:54:03;;;;;;;9.68;2.05;;;22.60;99.90;;;;;;5045789;28;20048;-79
2023/07/04 07:56:39;;;;;;;4.22;1.67;;;22.60;99.90;;;;;;5031441;28;20115;-79
2023/07/04 07:59:05;;;;;;;7.13;1.75;;;22.30;99.90;;;;;;5047208;28;20514;-78
2023/07/04 08:01:33;;;;;;;3.38;1.42;;;22.10;99.90;;;;;;5045186;28;20037;-80
2023/07/04 08:04:00;;;;;;;8.68;1.90;;;21.80;99.90;;;;;;5051867;28;20372;-80
2023/07/04 08:06:27;;;;;;;;;;;21.40;99.90;;;;;;5036893;28;20558;-79
2023/07/04 08:08:54;;;;;;;5.60;2.03;;;21.10;99.90;;;;;;5052809;28;19924;-80
2023/07/04 08:11:21;;;;;;;5.60;1.95;;;20.80;99.90;;;;;;5036684;28;20049;-83
2023/07/04 08:13:47;;;;;;;5.70;2.10;;;;;;;;;;5053535;28;20044;-80
2023/07/04 08:16:18;;;;;;;15.23;3.03;;;20.40;99.90;;;;;;5047572;28;20124;-81
2023/07/04 08:18:43;;;;;;;8.15;2.30;;;20.30;99.90;;;;;;5047631;28;20041;-79
2023/07/04 08:21:09;;;;;;;7.50;2.05;;;20.40;99.90;;;;;;5048973;28;20132;-79
2023/07/04 08:23:34;;;;;;;6.20;2.25;;;20.50;99.90;;;;;;5049893;28;20075;-79
2023/07/04 08:26:00;;;;;;;6.25;2.13;;;20.70;99.90;;;;;;5055904;28;20773;-79
2023/07/04 08:28:26;;;;;;;6.68;2.22;;;20.60;99.90;;;;;;5054008;28;20406;-79
2023/07/04 08:30:52;;;;;;;7.82;2.15;;;20.60;99.90;;;;;;5047030;28;20029;-80
2023/07/04 08:33:18;;;;;;;7.57;1.85;;;20.80;99.90;;;;;;5014026;28;20465;-80
2023/07/04 08:35:58;;;;;;;8.50;2.22;;;20.70;99.90;;;;;;5048100;28;20483;-80
2023/07/04 08:38:24;;;;;;;8.43;2.13;;;20.30;99.90;;;;;;5049879;28;20044;-80
2023/07/04 08:40:50;;;;;;;8.63;2.10;;;20.30;99.90;;;;;;5049750;28;20142;-81
2023/07/04 08:43:31;;;;;;;8.52;2.22;;;20.30;99.90;;;;;;5054224;28;20087;-81
2023/07/04 08:45:57;;;;;;;8.00;1.80;;;20.20;99.90;;;;;;5050321;28;20072;-81
2023/07/04 08:48:25;;;;;;;7.88;2.20;;;20.30;99.90;;;;;;5040675;28;20051;-80
2023/07/04 08:50:55;;;;;;;7.43;2.28;;;20.30;99.90;;;;;;5048959;28;20488;-80
2023/07/04 08:53:22;;;;;;;9.80;2.42;;;20.30;99.90;;;;;;5047039;28;20040;-81
2023/07/04 08:55:58;;;;;;;6.72;2.00;;;;;;;;;;5051654;28;20178;-82
2023/07/04 08:58:29;;;;;;;6.97;2.20;;;19.90;99.90;;;;;;5054477;28;20717;-81
2023/07/04 09:00:58;;;;;;;6.28;2.13;;;19.70;99.90;;;;;;5054697;28;20038;-81
2023/07/04 09:03:40;;;;;;;9.82;2.42;;;19.60;99.90;;;;;;5049850;28;20335;-82
2023/07/04 09:06:31;;;;;;;6.82;1.98;;;19.30;99.90;;;;;;5049123;28;20089;-81
2023/07/04 09:08:59;;;;;;;7.93;2.10;;;19.30;99.90;;;;;;5055637;28;20083;-81
2023/07/04 09:11:27;;;;;;;7.85;2.53;;;;;;;;;;5054417;28;20113;-81
2023/07/04 09:14:01;;;;;;;11.27;2.50;;;18.50;99.90;;;;;;5052651;28;20068;-81
2023/07/04 09:16:40;;;;;;;8.02;1.88;;;18.60;99.90;;;;;;5049043;28;20092;-81
2023/07/04 09:19:09;;;;;;;9.25;2.03;;;18.60;99.90;;;;;;5052118;28;20128;-82
2023/07/04 09:21:39;;;;;;;5.38;1.65;;;;;;;;;;5056750;28;20036;-81
2023/07/04 09:24:05;;;;;;;6.60;2.10;;;18.50;99.90;;;;;;5053853;28;20549;-81
2023/07/04 09:26:44;;;;;;;9.05;2.22;;;18.30;99.90;;;;;;5061179;28;20041;-81
2023/07/04 09:29:12;;;;;;;7.63;2.55;;;18.40;99.90;;;;;;5059841;28;20072;-81
2023/07/04 09:31:40;;;;;;;6.95;2.08;;;18.40;99.90;;;;;;5060091;28;20523;-79
2023/07/04 09:34:22;;;;;;;7.50;1.83;;;18.30;99.90;;;;;;5041476;28;20055;-79
2023/07/04 09:36:51;;;;;;;6.40;2.13;;;18.30;99.90;;;;;;5059228;28;20097;-79
2023/07/04 09:39:16;;;;;;;6.50;2.13;;;18.20;99.90;;;;;;5054687;28;20399;-79
2023/07/04 09:41:56;;;;;;;21.42;13.07;;;18.30;99.90;;;;;;5058316;28;20470;-79
2023/07/04 09:44:32;;;;;;;11.82;3.05;;;18.30;99.90;;;;;;5036933;28;20040;-80
2023/07/04 09:47:00;;;;;;;6.68;2.30;;;18.40;99.90;;;;;;5041168;28;20115;-80
2023/07/04 09:49:31;;;;;;;4.72;1.80;;;18.50;99.90;;;;;;5059904;28;20037;-79
2023/07/04 09:52:02;;;;;;;7.85;1.95;;;18.40;99.90;;;;;;5059221;28;20040;-80
2023/07/04 09:54:30;;;;;;;7.57;2.08;;;18.60;99.90;;;;;;5043374;28;20357;-79
2023/07/04 09:56:56;;;;;;;7.78;1.80;;;;;;;;;;5045777;28;20060;-79
2023/07/04 09:59:27;;;;;;;9.75;2.33;;;19.10;99.90;;;;;;5052218;28;20045;-79
2023/07/04 10:01:54;;;;;;;9.48;2.25;;;;;;;;;;5050106;28;20135;-78
2023/07/04 10:04:24;;;;;;;;;;;19.30;99.90;;;;;;5065664;28;20071;-78
2023/07/04 10:06:51;;;;;;;5.38;1.77;;;19.50;99.90;;;;;;5045877;28;19980;-78
2023/07/04 10:09:20;;;;;;;6.35;2.17;;;19.50;99.90;;;;;;5055910;28;20057;-79
2023/07/04 10:11:48;;;;;;;5.28;1.88;;;19.30;99.90;;;;;;5044612;28;20049;-78
2023/07/04 10:14:14;;;;;;;5.20;1.75;;;19.50;99.90;;;;;;5041711;28;20103;-78
2023/07/04 10:16:50;;;;;;;5.28;2.10;;;19.50;99.90;;;;;;5054754;28;20059;-78
2023/07/04 10:19:20;;;;;;;6.57;2.00;;;19.60;99.90;;;;;;5049253;28;20052;-78
2023/07/04 10:21:50;;;;;;;5.85;1.73;;;19.70;99.90;;;;;;5039692;28;20041;-78
2023/07/04 10:24:24;;;;;;;4.93;1.70;;;19.60;99.90;;;;;;5056313;28;20053;-78
2023/07/04 10:27:05;;;;;;;6.00;2.05;;;19.90;99.90;;;;;;5056276;28;20041;-79
2023/07/04 10:29:52;;;;;;;4.13;1.67;;;20.50;99.90;;;;;;5055518;28;20056;-79
2023/07/04 10:32:18;;;;;;;7.82;2.33;;;21.00;99.90;;;;;;5037972;28;20045;-78
2023/07/04 10:34:47;;;;;;;8.15;2.40;;;21.10;99.90;;;;;;5055423;28;20056;-80
2023/07/04 10:37:20;;;;;;;8.63;2.05;;;21.60;99.90;;;;;;5054770;28;20080;-79
2023/07/04 10:39:46;;;;;;;7.65;2.10;;;21.70;99.90;;;;;;5051961;28;20052;-79
2023/07/04 10:42:21;;;;;;;7.72;2.00;;;21.60;99.90;;;;;;5036270;28;20486;-79
2023/07/04 10:44:50;;;;;;;6.47;1.98;;;21.30;99.90;;;;;;5049970;28;20037;-79
2023/07/04 10:47:39;;;;;;;4.47;1.80;;;21.40;99.90;;;;;;5055374;28;20037;-79
2023/07/04 10:50:16;;;;;;;6.55;2.15;;;20.70;99.90;;;;;;5056364;28;20407;-79
2023/07/04 10:52:46;;;;;;;8.45;2.28;;;21.30;99.90;;;;;;5051691;28;20048;-79
2023/07/04 10:55:20;;;;;;;7.97;2.47;;;;;;;;;;5052271;28;20037;-79
2023/07/04 10:57:56;;;;;;;6.07;2.10;;;;;;;;;;5052918;28;20087;-79
2023/07/04 11:00:22;;;;;;;5.80;1.90;;;;;;;;;;5049728;28;20053;-79
2023/07/04 11:02:53;;;;;;;6.43;2.10;;;;;;;;;;5050886;28;20041;-79
2023/07/04 11:05:30;;;;;;;7.60;2.35;;;21.80;99.90;;;;;;5050950;28;20452;-79
2023/07/04 11:07:56;;;;;;;;;;;22.00;99.90;;;;;;5045949;28;20170;-78
2023/07/04 11:10:24;;;;;;;7.53;2.10;;;22.00;99.90;;;;;;5049020;28;19938;-79
2023/07/04 11:12:56;;;;;;;7.68;2.33;;;22.10;99.90;;;;;;5054717;28;20050;-79
2023/07/04 11:15:27;;;;;;;6.88;1.90;;;22.00;99.90;;;;;;5055210;28;20041;-79
2023/07/04 11:17:54;;;;;;;6.22;1.90;;;21.90;99.90;;;;;;5057234;28;20798;-79
2023/07/04 11:20:47;;;;;;;5.50;2.00;;;21.70;99.90;;;;;;5039336;28;20037;-79
2023/07/04 11:23:19;;;;;;;8.10;2.30;;;21.70;99.90;;;;;;5053320;28;20059;-78
2023/07/04 11:25:44;;;;;;;8.48;2.30;;;21.40;99.90;;;;;;5053033;28;20065;-79
2023/07/04 11:28:30;;;;;;;7.82;2.17;;;21.30;99.90;;;;;;5048344;28;20453;-79
2023/07/04 11:31:11;;;;;;;7.75;2.20;;;21.00;99.90;;;;;;5053215;28;20093;-80
2023/07/04 11:33:39;;;;;;;5.38;1.90;;;20.80;99.90;;;;;;5046644;28;20037;-77
2023/07/04 11:36:08;;;;;;;4.68;1.75;;;20.70;99.90;;;;;;5041232;28;20107;-77
2023/07/04 11:38:40;;;;;;;8.70;2.20;;;20.40;99.90;;;;;;5050873;28;20503;-77
2023/07/04 11:41:09;;;;;;;7.32;2.15;;;20.30;99.90;;;;;;5055170;28;20056;-77
2023/07/04 11:43:42;;;;;;;8.43;2.03;;;20.20;99.90;;;;;;5055501;28;20084;-77
2023/07/04 11:46:19;;;;;;;9.93;2.38;;;20.20;99.90;;;;;;5038942;28;20403;-77
2023/07/04 11:48:49;;;;;;;5.32;2.05;;;20.40;99.90;;;;;;5055312;28;20119;-78
2023/07/04 11:51:15;;;;;;;8.27;2.40;;;20.20;99.90;;;;;;5057248;28;20048;-78
2023/07/04 11:53:48;;;;;;;9.90;2.80;;;20.10;99.90;;;;;;5057297;28;20049;-78
2023/07/04 11:56:18;;;;;;;8.93;2.60;;;20.20;99.90;;;;;;5053016;28;20059;-77
2023/07/04 11:58:45;;;;;;;6.55;2.50;;;20.20;99.90;;;;;;5060511;28;20056;-78
2023/07/04 12:01:13;;;;;;;7.65;2.08;;;20.10;99.90;;;;;;5021856;28;20044;-78
2023/07/04 12:03:38;;;;;;;;;;;20.10;99.90;;;;;;5054707;28;20048;-77
2023/07/04 12:06:04;;;;;;;7.00;2.20;;;20.20;99.90;;;;;;5036504;28;20321;-77
2023/07/04 12:08:45;;;;;;;7.15;2.47;;;20.30;99.90;;;;;;5053725;28;20676;-78
2023/07/04 12:11:26;;;;;;;7.75;2.25;;;20.30;99.90;;;;;;5038142;28;20055;-78
2023/07/04 12:13:52;;;;;;;5.97;2.00;;;20.50;99.90;;;;;;5044595;28;20071;-77
2023/07/04 12:16:21;;;;;;;6.53;2.47;;;20.70;99.90;;;;;;5055835;28;20045;-78
2023/07/04 12:18:48;;;;;;;5.45;1.65;;;20.90;99.90;;;;;;5016374;28;20447;-77
2023/07/04 12:21:19;;;;;;;7.78;2.13;;;21.20;99.90;;;;;;5045361;28;20084;-78
2023/07/04 12:23:46;;;;;;;6.82;1.77;;;21.30;99.90;;;;;;5036308;28;20041;-78
2023/07/04 12:26:22;;;;;;;7.28;2.20;;;21.70;99.90;;;;;;5054316;28;20049;-78
2023/07/04 12:28:48;;;;;;;5.75;2.40;;;21.80;99.90;;;;;;5056401;28;20049;-77
2023/07/04 12:31:15;;;;;;;6.70;2.30;;;;;;;;;;5053963;28;20499;-77
2023/07/04 12:33:44;;;;;;;7.88;2.42;;;22.30;99.90;;;;;;5053437;28;20175;-77
2023/07/04 12:36:14;;;;;;;7.63;2.20;;;;;;;;;;5057394;28;20041;-79
2023/07/04 12:38:50;;;;;;;5.93;2.20;;;22.60;99.90;;;;;;5050176;28;20380;-79
2023/07/04 12:41:21;;;;;;;7.63;2.75;;;22.50;99.90;;;;;;5056925;28;20040;-80
2023/07/04 12:43:59;;;;;;;7.38;2.42;;;22.80;99.90;;;;;;5060117;28;20415;-80
2023/07/04 12:46:26;;;;;;;4.90;1.85;;;22.90;99.90;;;;;;5043823;28;20037;-81
2023/07/04 12:48:52;;;;;;;7.20;2.20;;;23.00;99.90;;;;;;5023295;28;20041;-79
2023/07/04 12:51:22;;;;;;;6.30;2.03;;;22.90;99.90;;;;;;5037532;28;20092;-78
2023/07/04 12:53:49;;;;;;;6.93;2.42;;;22.60;99.90;;;;;;5055617;28;20052;-78
2023/07/04 12:56:16;;;;;;;7.78;2.35;;;22.50;99.90;;;;;;5057122;28;20045;-78
2023/07/04 12:58:47;;;;;;;8.98;2.72;;;22.70;99.90;;;;;;5055944;28;20092;-78
2023/07/04 13:01:24;;;;;;;7.35;2.20;;;22.60;99.90;;;;;;5055027;28;20154;-78